sensor_id;sensor_type;location;lat;lon;timestamp;pressure;altitude;pressure_sealevel;temperature;humidity
61678;BME280;47575;52.054;4.334;2022-07-21T00:00:13;101734.31;;;20.65;100.00
61678;BME280;47575;52.054;4.334;2022-07-21T00:02:41;101731.81;;;20.62;100.00
61678;BME280;47575;52.054;4.334;2022-07-21T00:05:08;101722.72;;;20.66;100.00
61678;BME280;47575;52.054;4.334;2022-07-21T00:07:36;101706.50;;;20.71;100.00
61678;BME280;47575;52.054;4.334;2022-07-21T00:10:03;101706.00;;;20.64;100.00
61678;BME280;47575;52.054;4.334;2022-07-21T00:12:31;101703.41;;;20.63;100.00
61678;BME280;47575;52.054;4.334;2022-07-21T00:15:00;101700.75;;;20.63;100.00
61678;BME280;47575;52.054;4.334;2022-07-21T00:17:27;101704.38;;;20.62;100.00
61678;BME280;47575;52.054;4.334;2022-07-21T00:19:54;101701.44;;;20.66;100.00
61678;BME280;47575;52.054;4.334;2022-07-21T00:22:21;101694.19;;;20.54;100.00
61678;BME280;47575;52.054;4.334;2022-07-21T00:24:48;101700.84;;;20.61;100.00
61678;BME280;47575;52.054;4.334;2022-07-21T00:27:16;101701.91;;;20.59;100.00
61678;BME280;47575;52.054;4.334;2022-07-21T00:29:43;101698.09;;;20.63;100.00
61678;BME280;47575;52.054;4.334;2022-07-21T00:32:12;101695.44;;;20.63;100.00
61678;BME280;47575;52.054;4.334;2022-07-21T00:34:39;101690.41;;;20.58;100.00
61678;BME280;47575;52.054;4.334;2022-07-21T00:37:06;101692.22;;;20.58;100.00
61678;BME280;47575;52.054;4.334;2022-07-21T00:39:34;101704.66;;;20.57;100.00
61678;BME280;47575;52.054;4.334;2022-07-21T00:42:02;101706.47;;;20.57;100.00
61678;BME280;47575;52.054;4.334;2022-07-21T00:44:29;101702.50;;;20.64;100.00
61678;BME280;47575;52.054;4.334;2022-07-21T00:46:57;101708.06;;;20.59;100.00
61678;BME280;47575;52.054;4.334;2022-07-21T00:49:26;101704.25;;;20.63;100.00
61678;BME280;47575;52.054;4.334;2022-07-21T00:51:53;101704.38;;;20.62;100.00
61678;BME280;47575;52.054;4.334;2022-07-21T00:54:21;101707.03;;;20.62;100.00
61678;BME280;47575;52.054;4.334;2022-07-21T00:56:48;101698.09;;;20.63;100.00
61678;BME280;47575;52.054;4.334;2022-07-21T00:59:15;101702.94;;;20.56;100.00
61678;BME280;47575;52.054;4.334;2022-07-21T01:01:43;101697.22;;;20.48;100.00
61678;BME280;47575;52.054;4.334;2022-07-21T01:04:10;101705.19;;;20.48;100.00
61678;BME280;47575;52.054;4.334;2022-07-21T01:06:39;101712.81;;;20.54;100.00
61678;BME280;47575;52.054;4.334;2022-07-21T01:09:06;101710.16;;;20.54;100.00
61678;BME280;47575;52.054;4.334;2022-07-21T01:11:34;101705.78;;;20.53;100.00
61678;BME280;47575;52.054;4.334;2022-07-21T01:14:02;101708.06;;;20.59;100.00
61678;BME280;47575;52.054;4.334;2022-07-21T01:16:29;101711.31;;;20.64;100.00
61678;BME280;47575;52.054;4.334;2022-07-21T01:18:57;101707.97;;;20.61;100.00
61678;BME280;47575;52.054;4.334;2022-07-21T01:21:31;101711.13;;;20.67;100.00
61678;BME280;47575;52.054;4.334;2022-07-21T01:23:59;101706.91;;;20.63;100.00
61678;BME280;47575;52.054;4.334;2022-07-21T01:26:28;101693.44;;;20.66;100.00
61678;BME280;47575;52.054;4.334;2022-07-21T01:28:56;101699.34;;;20.71;100.00
61678;BME280;47575;52.054;4.334;2022-07-21T01:31:24;101687.16;;;20.53;100.00
61678;BME280;47575;52.054;4.334;2022-07-21T01:33:51;101695.53;;;20.61;100.00
61678;BME280;47575;52.054;4.334;2022-07-21T01:36:18;101703.25;;;20.66;100.00
61678;BME280;47575;52.054;4.334;2022-07-21T01:38:47;101701.81;;;20.60;100.00
61678;BME280;47575;52.054;4.334;2022-07-21T01:41:31;101707.22;;;20.59;100.00
61678;BME280;47575;52.054;4.334;2022-07-21T01:44:02;101707.88;;;20.62;100.00
61678;BME280;47575;52.054;4.334;2022-07-21T01:46:36;101696.28;;;20.63;100.00
61678;BME280;47575;52.054;4.334;2022-07-21T01:49:04;101691.53;;;20.68;100.00
61678;BME280;47575;52.054;4.334;2022-07-21T01:51:33;101677.84;;;20.60;100.00
61678;BME280;47575;52.054;4.334;2022-07-21T01:54:02;101677.47;;;20.52;100.00
61678;BME280;47575;52.054;4.334;2022-07-21T01:56:30;101672.41;;;20.48;100.00
61678;BME280;47575;52.054;4.334;2022-07-21T01:58:57;101676.34;;;20.40;100.00
61678;BME280;47575;52.054;4.334;2022-07-21T02:01:25;101680.50;;;20.46;100.00
61678;BME280;47575;52.054;4.334;2022-07-21T02:03:54;101685.06;;;20.44;100.00
61678;BME280;47575;52.054;4.334;2022-07-21T02:06:22;101684.00;;;20.46;100.00
61678;BME280;47575;52.054;4.334;2022-07-21T02:08:50;101674.91;;;20.51;100.00
61678;BME280;47575;52.054;4.334;2022-07-21T02:11:19;101665.88;;;20.53;100.00
61678;BME280;47575;52.054;4.334;2022-07-21T02:13:47;101659.97;;;20.48;100.00
61678;BME280;47575;52.054;4.334;2022-07-21T02:16:14;101662.09;;;20.57;100.00
61678;BME280;47575;52.054;4.334;2022-07-21T02:18:43;101658.09;;;20.50;100.00
61678;BME280;47575;52.054;4.334;2022-07-21T02:21:10;101654.66;;;20.48;100.00
61678;BME280;47575;52.054;4.334;2022-07-21T02:23:37;101653.91;;;20.46;100.00
61678;BME280;47575;52.054;4.334;2022-07-21T02:26:05;101655.72;;;20.45;100.00
61678;BME280;47575;52.054;4.334;2022-07-21T02:28:33;101658.59;;;20.57;100.00
61678;BME280;47575;52.054;4.334;2022-07-21T02:31:01;101660.00;;;20.62;100.00
61678;BME280;47575;52.054;4.334;2022-07-21T02:33:28;101660.00;;;20.62;100.00
61678;BME280;47575;52.054;4.334;2022-07-21T02:35:55;101668.16;;;20.59;100.00
61678;BME280;47575;52.054;4.334;2022-07-21T02:38:23;101665.13;;;20.51;100.00
61678;BME280;47575;52.054;4.334;2022-07-21T02:40:50;101666.56;;;20.57;100.00
61678;BME280;47575;52.054;4.334;2022-07-21T02:43:17;101665.31;;;20.62;100.00
61678;BME280;47575;52.054;4.334;2022-07-21T02:45:46;101670.84;;;20.59;100.00
61678;BME280;47575;52.054;4.334;2022-07-21T02:48:13;101667.78;;;20.51;100.00
61678;BME280;47575;52.054;4.334;2022-07-21T02:50:42;101671.19;;;20.53;100.00
61678;BME280;47575;52.054;4.334;2022-07-21T02:53:11;101660.56;;;20.53;100.00
61678;BME280;47575;52.054;4.334;2022-07-21T02:55:40;101667.47;;;20.56;100.00
61678;BME280;47575;52.054;4.334;2022-07-21T02:58:09;101659.44;;;20.57;100.00
61678;BME280;47575;52.054;4.334;2022-07-21T03:00:38;101651.47;;;20.57;100.00
61678;BME280;47575;52.054;4.334;2022-07-21T03:03:07;101646.59;;;20.50;100.00
61678;BME280;47575;52.054;4.334;2022-07-21T03:05:37;101650.13;;;20.50;100.00
61678;BME280;47575;52.054;4.334;2022-07-21T03:08:06;101645.66;;;20.51;100.00
61678;BME280;47575;52.054;4.334;2022-07-21T03:10:33;101639.75;;;20.45;100.00
61678;BME280;47575;52.054;4.334;2022-07-21T03:13:01;101643.38;;;20.44;100.00
61678;BME280;47575;52.054;4.334;2022-07-21T03:15:29;101647.91;;;20.42;100.00
61678;BME280;47575;52.054;4.334;2022-07-21T03:17:57;101657.50;;;20.45;100.00
61678;BME280;47575;52.054;4.334;2022-07-21T03:20:27;101652.78;;;20.50;100.00
61678;BME280;47575;52.054;4.334;2022-07-21T03:22:55;101656.28;;;20.51;100.00
61678;BME280;47575;52.054;4.334;2022-07-21T03:25:23;101650.78;;;20.54;100.00
61678;BME280;47575;52.054;4.334;2022-07-21T03:27:50;101656.28;;;20.51;100.00
61678;BME280;47575;52.054;4.334;2022-07-21T03:30:21;101657.53;;;20.59;100.00
61678;BME280;47575;52.054;4.334;2022-07-21T03:32:50;101658.28;;;20.61;100.00
61678;BME280;47575;52.054;4.334;2022-07-21T03:35:18;101663.06;;;20.56;100.00
61678;BME280;47575;52.054;4.334;2022-07-21T03:37:48;101668.94;;;20.61;100.00
61678;BME280;47575;52.054;4.334;2022-07-21T03:40:18;101665.72;;;20.56;100.00
61678;BME280;47575;52.054;4.334;2022-07-21T03:42:48;101660.56;;;20.53;100.00
61678;BME280;47575;52.054;4.334;2022-07-21T03:45:16;101661.50;;;20.52;100.00
61678;BME280;47575;52.054;4.334;2022-07-21T03:47:43;101653.03;;;20.45;100.00
61678;BME280;47575;52.054;4.334;2022-07-21T03:50:11;101658.47;;;20.44;100.00
61678;BME280;47575;52.054;4.334;2022-07-21T03:52:39;101656.56;;;20.46;100.00
61678;BME280;47575;52.054;4.334;2022-07-21T03:55:08;101654.59;;;20.50;100.00
61678;BME280;47575;52.054;4.334;2022-07-21T03:57:37;101652.78;;;20.50;100.00
61678;BME280;47575;52.054;4.334;2022-07-21T04:00:07;101655.44;;;20.50;100.00
61678;BME280;47575;52.054;4.334;2022-07-21T04:02:37;101659.59;;;20.54;100.00
61678;BME280;47575;52.054;4.334;2022-07-21T04:05:04;101661.25;;;20.57;100.00
61678;BME280;47575;52.054;4.334;2022-07-21T04:07:32;101670.94;;;20.58;100.00
61678;BME280;47575;52.054;4.334;2022-07-21T04:09:59;101671.81;;;20.42;100.00
61678;BME280;47575;52.054;4.334;2022-07-21T04:12:28;101681.03;;;20.37;100.00
61678;BME280;47575;52.054;4.334;2022-07-21T04:14:55;101686.84;;;20.13;100.00
61678;BME280;47575;52.054;4.334;2022-07-21T04:17:22;101683.16;;;20.16;100.00
61678;BME280;47575;52.054;4.334;2022-07-21T04:19:50;101684.34;;;20.10;100.00
61678;BME280;47575;52.054;4.334;2022-07-21T04:22:17;101685.50;;;20.06;100.00
61678;BME280;47575;52.054;4.334;2022-07-21T04:24:44;101689.50;;;20.13;100.00
61678;BME280;47575;52.054;4.334;2022-07-21T04:27:12;101693.63;;;20.19;100.00
61678;BME280;47575;52.054;4.334;2022-07-21T04:29:40;101688.91;;;20.08;100.00
61678;BME280;47575;52.054;4.334;2022-07-21T04:32:07;101699.22;;;19.99;100.00
61678;BME280;47575;52.054;4.334;2022-07-21T04:34:35;101699.06;;;19.86;100.00
61678;BME280;47575;52.054;4.334;2022-07-21T04:37:02;101704.38;;;19.86;100.00
61678;BME280;47575;52.054;4.334;2022-07-21T04:39:30;101700.72;;;19.73;100.00
61678;BME280;47575;52.054;4.334;2022-07-21T04:41:57;101706.41;;;19.67;100.00
61678;BME280;47575;52.054;4.334;2022-07-21T04:44:24;101712.56;;;19.67;100.00
61678;BME280;47575;52.054;4.334;2022-07-21T04:46:53;101705.06;;;19.74;100.00
61678;BME280;47575;52.054;4.334;2022-07-21T04:49:20;101712.03;;;19.76;100.00
61678;BME280;47575;52.054;4.334;2022-07-21T04:51:47;101708.19;;;19.82;100.00
61678;BME280;47575;52.054;4.334;2022-07-21T04:54:15;101715.97;;;19.85;100.00
61678;BME280;47575;52.054;4.334;2022-07-21T04:56:43;101705.00;;;19.91;100.00
61678;BME280;47575;52.054;4.334;2022-07-21T04:59:11;101706.59;;;19.94;100.00
61678;BME280;47575;52.054;4.334;2022-07-21T05:01:39;101718.63;;;19.85;100.00
61678;BME280;47575;52.054;4.334;2022-07-21T05:04:07;101715.47;;;19.78;100.00
61678;BME280;47575;52.054;4.334;2022-07-21T05:06:34;101705.94;;;19.90;100.00
61678;BME280;47575;52.054;4.334;2022-07-21T05:09:02;101702.59;;;19.86;100.00
61678;BME280;47575;52.054;4.334;2022-07-21T05:11:29;101706.53;;;19.79;100.00
61678;BME280;47575;52.054;4.334;2022-07-21T05:13:58;101715.00;;;19.86;100.00
61678;BME280;47575;52.054;4.334;2022-07-21T05:16:25;101708.34;;;19.79;100.00
61678;BME280;47575;52.054;4.334;2022-07-21T05:18:52;101712.56;;;19.67;100.00
61678;BME280;47575;52.054;4.334;2022-07-21T05:21:21;101714.09;;;19.71;100.00
61678;BME280;47575;52.054;4.334;2022-07-21T05:23:48;101712.38;;;19.70;100.00
61678;BME280;47575;52.054;4.334;2022-07-21T05:26:15;101714.78;;;19.75;100.00
61678;BME280;47575;52.054;4.334;2022-07-21T05:28:43;101721.63;;;19.63;100.00
61678;BME280;47575;52.054;4.334;2022-07-21T05:31:10;101714.53;;;19.63;100.00
61678;BME280;47575;52.054;4.334;2022-07-21T05:33:37;101722.81;;;19.57;100.00
61678;BME280;47575;52.054;4.334;2022-07-21T05:36:05;101721.50;;;19.49;100.00
61678;BME280;47575;52.054;4.334;2022-07-21T05:38:34;101723.94;;;19.53;100.00
61678;BME280;47575;52.054;4.334;2022-07-21T05:41:02;101732.03;;;19.50;100.00
61678;BME280;47575;52.054;4.334;2022-07-21T05:43:31;101739.16;;;19.50;100.00
61678;BME280;47575;52.054;4.334;2022-07-21T05:45:59;101728.97;;;19.42;100.00
61678;BME280;47575;52.054;4.334;2022-07-21T05:48:26;101739.00;;;19.37;100.00
61678;BME280;47575;52.054;4.334;2022-07-21T05:50:53;101735.44;;;19.21;100.00
61678;BME280;47575;52.054;4.334;2022-07-21T05:53:20;101735.63;;;19.18;100.00
61678;BME280;47575;52.054;4.334;2022-07-21T05:55:50;101739.72;;;19.07;100.00
61678;BME280;47575;52.054;4.334;2022-07-21T05:58:17;101746.63;;;19.10;100.00
61678;BME280;47575;52.054;4.334;2022-07-21T06:00:46;101734.53;;;19.04;100.00
61678;BME280;47575;52.054;4.334;2022-07-21T06:03:34;101742.41;;;19.06;100.00
61678;BME280;47575;52.054;4.334;2022-07-21T06:06:01;101750.38;;;19.06;100.00
61678;BME280;47575;52.054;4.334;2022-07-21T06:08:29;101749.94;;;18.98;100.00
61678;BME280;47575;52.054;4.334;2022-07-21T06:10:58;101750.88;;;18.97;100.00
61678;BME280;47575;52.054;4.334;2022-07-21T06:13:25;101752.44;;;19.01;100.00
61678;BME280;47575;52.054;4.334;2022-07-21T06:15:52;101748.22;;;18.97;100.00
61678;BME280;47575;52.054;4.334;2022-07-21T06:18:20;101748.72;;;18.88;100.00
61678;BME280;47575;52.054;4.334;2022-07-21T06:20:47;101755.56;;;18.92;100.00
61678;BME280;47575;52.054;4.334;2022-07-21T06:23:14;101756.91;;;19.00;100.00
61678;BME280;47575;52.054;4.334;2022-07-21T06:25:42;101765.09;;;18.96;100.00
61678;BME280;47575;52.054;4.334;2022-07-21T06:28:11;101774.75;;;18.97;100.00
61678;BME280;47575;52.054;4.334;2022-07-21T06:30:41;101773.63;;;18.85;100.00
61678;BME280;47575;52.054;4.334;2022-07-21T06:33:09;101770.06;;;18.85;100.00
61678;BME280;47575;52.054;4.334;2022-07-21T06:35:36;101766.13;;;18.76;100.00
61678;BME280;47575;52.054;4.334;2022-07-21T06:38:07;101774.06;;;18.76;100.00
61678;BME280;47575;52.054;4.334;2022-07-21T06:40:35;101776.66;;;18.77;100.00
61678;BME280;47575;52.054;4.334;2022-07-21T06:43:02;101774.69;;;18.81;100.00
61678;BME280;47575;52.054;4.334;2022-07-21T06:45:31;101781.25;;;18.74;100.00
61678;BME280;47575;52.054;4.334;2022-07-21T06:48:00;101782.03;;;18.76;100.00
61678;BME280;47575;52.054;4.334;2022-07-21T06:50:27;101789.13;;;18.75;100.00
61678;BME280;47575;52.054;4.334;2022-07-21T06:52:55;101784.34;;;18.65;100.00
61678;BME280;47575;52.054;4.334;2022-07-21T06:55:22;101794.06;;;18.66;100.00
61678;BME280;47575;52.054;4.334;2022-07-21T06:57:49;101796.13;;;18.59;100.00
61678;BME280;47575;52.054;4.334;2022-07-21T07:00:17;101803.59;;;18.51;100.00
61678;BME280;47575;52.054;4.334;2022-07-21T07:02:46;101805.47;;;18.49;100.00
61678;BME280;47575;52.054;4.334;2022-07-21T07:05:13;101814.00;;;18.56;100.00
61678;BME280;47575;52.054;4.334;2022-07-21T07:07:41;101814.78;;;18.58;100.00
61678;BME280;47575;52.054;4.334;2022-07-21T07:10:09;101816.94;;;18.49;100.00
61678;BME280;47575;52.054;4.334;2022-07-21T07:12:37;101830.97;;;18.51;100.00
61678;BME280;47575;52.054;4.334;2022-07-21T07:15:05;101827.63;;;18.48;100.00
61678;BME280;47575;52.054;4.334;2022-07-21T07:17:32;101828.13;;;18.56;100.00
61678;BME280;47575;52.054;4.334;2022-07-21T07:20:01;101833.00;;;18.46;100.00
61678;BME280;47575;52.054;4.334;2022-07-21T07:22:31;101831.84;;;18.52;100.00
61678;BME280;47575;52.054;4.334;2022-07-21T07:24:59;101833.72;;;18.50;100.00
61678;BME280;47575;52.054;4.334;2022-07-21T07:27:26;101839.88;;;18.50;100.00
61678;BME280;47575;52.054;4.334;2022-07-21T07:29:53;101830.69;;;18.58;100.00
61678;BME280;47575;52.054;4.334;2022-07-21T07:32:20;101828.66;;;18.63;100.00
61678;BME280;47575;52.054;4.334;2022-07-21T07:34:48;101837.69;;;18.59;100.00
61678;BME280;47575;52.054;4.334;2022-07-21T07:37:16;101833.25;;;18.59;100.00
61678;BME280;47575;52.054;4.334;2022-07-21T07:39:44;101836.75;;;18.60;100.00
61678;BME280;47575;52.054;4.334;2022-07-21T07:42:11;101841.38;;;18.56;100.00
61678;BME280;47575;52.054;4.334;2022-07-21T07:44:38;101847.44;;;18.58;100.00
61678;BME280;47575;52.054;4.334;2022-07-21T07:47:06;101844.88;;;18.57;100.00
61678;BME280;47575;52.054;4.334;2022-07-21T07:49:33;101844.78;;;18.58;100.00
61678;BME280;47575;52.054;4.334;2022-07-21T07:52:00;101848.38;;;18.57;100.00
61678;BME280;47575;52.054;4.334;2022-07-21T07:54:30;101852.97;;;18.53;100.00
61678;BME280;47575;52.054;4.334;2022-07-21T07:56:57;101849.69;;;18.48;100.00
61678;BME280;47575;52.054;4.334;2022-07-21T07:59:24;101840.09;;;18.46;100.00
61678;BME280;47575;52.054;4.334;2022-07-21T08:01:51;101845.63;;;18.41;100.00
61678;BME280;47575;52.054;4.334;2022-07-21T08:04:19;101850.84;;;18.43;100.00
61678;BME280;47575;52.054;4.334;2022-07-21T08:06:46;101851.63;;;18.45;100.00
61678;BME280;47575;52.054;4.334;2022-07-21T08:09:13;101850.00;;;18.42;100.00
61678;BME280;47575;52.054;4.334;2022-07-21T08:11:42;101853.72;;;18.38;100.00
61678;BME280;47575;52.054;4.334;2022-07-21T08:14:13;101854.28;;;18.45;100.00
61678;BME280;47575;52.054;4.334;2022-07-21T08:16:40;101863.25;;;18.42;100.00
61678;BME280;47575;52.054;4.334;2022-07-21T08:19:10;101856.25;;;18.41;100.00
61678;BME280;47575;52.054;4.334;2022-07-21T08:21:37;101861.66;;;18.57;100.00
61678;BME280;47575;52.054;4.334;2022-07-21T08:24:05;101856.63;;;18.51;100.00
61678;BME280;47575;52.054;4.334;2022-07-21T08:26:33;101857.97;;;18.60;100.00
61678;BME280;47575;52.054;4.334;2022-07-21T08:29:06;101857.53;;;18.69;100.00
61678;BME280;47575;52.054;4.334;2022-07-21T08:31:34;101857.25;;;18.75;100.00
61678;BME280;47575;52.054;4.334;2022-07-21T08:34:06;101859.59;;;18.81;100.00
61678;BME280;47575;52.054;4.334;2022-07-21T08:36:35;101860.13;;;18.88;100.00
61678;BME280;47575;52.054;4.334;2022-07-21T08:39:05;101864.50;;;19.06;100.00
61678;BME280;47575;52.054;4.334;2022-07-21T08:41:34;101866.34;;;19.21;100.00
61678;BME280;47575;52.054;4.334;2022-07-21T08:44:02;101872.28;;;19.26;100.00
61678;BME280;47575;52.054;4.334;2022-07-21T08:46:32;101874.56;;;19.17;100.00
61678;BME280;47575;52.054;4.334;2022-07-21T08:49:02;101882.13;;;19.24;100.00
61678;BME280;47575;52.054;4.334;2022-07-21T08:51:32;101884.63;;;19.27;100.00
61678;BME280;47575;52.054;4.334;2022-07-21T08:54:00;101882.09;;;19.42;100.00
61678;BME280;47575;52.054;4.334;2022-07-21T08:56:27;101875.31;;;19.36;100.00
61678;BME280;47575;52.054;4.334;2022-07-21T08:58:55;101867.84;;;19.27;100.00
61678;BME280;47575;52.054;4.334;2022-07-21T09:01:23;101870.50;;;19.27;100.00
61678;BME280;47575;52.054;4.334;2022-07-21T09:03:56;101870.41;;;19.28;100.00
61678;BME280;47575;52.054;4.334;2022-07-21T09:06:49;101874.09;;;19.26;100.00
61678;BME280;47575;52.054;4.334;2022-07-21T09:09:18;101873.19;;;19.09;100.00
61678;BME280;47575;52.054;4.334;2022-07-21T09:11:46;101878.16;;;18.98;100.00
61678;BME280;47575;52.054;4.334;2022-07-21T09:14:15;101875.59;;;18.79;100.00
61678;BME280;47575;52.054;4.334;2022-07-21T09:16:46;101881.50;;;18.85;100.00
61678;BME280;47575;52.054;4.334;2022-07-21T09:19:21;101886.19;;;18.79;100.00
61678;BME280;47575;52.054;4.334;2022-07-21T09:21:50;101887.06;;;18.80;100.00
61678;BME280;47575;52.054;4.334;2022-07-21T09:24:21;101895.94;;;18.79;100.00
61678;BME280;47575;52.054;4.334;2022-07-21T09:27:04;101886.28;;;18.78;100.00
61678;BME280;47575;52.054;4.334;2022-07-21T09:29:40;101897.41;;;18.67;100.00
61678;BME280;47575;52.054;4.334;2022-07-21T09:32:13;101892.38;;;18.61;100.00
61678;BME280;47575;52.054;4.334;2022-07-21T09:34:42;101897.34;;;18.50;100.00
61678;BME280;47575;52.054;4.334;2022-07-21T09:37:10;101898.13;;;18.52;100.00
61678;BME280;47575;52.054;4.334;2022-07-21T09:39:42;101900.28;;;18.44;100.00
61678;BME280;47575;52.054;4.334;2022-07-21T09:42:15;101907.38;;;18.43;100.00
61678;BME280;47575;52.054;4.334;2022-07-21T09:44:43;101907.19;;;18.48;100.00
61678;BME280;47575;52.054;4.334;2022-07-21T09:47:11;101908.91;;;18.49;100.00
61678;BME280;47575;52.054;4.334;2022-07-21T09:49:39;101917.41;;;18.56;100.00
61678;BME280;47575;52.054;4.334;2022-07-21T09:52:29;101913.53;;;18.63;100.00
61678;BME280;47575;52.054;4.334;2022-07-21T09:54:58;101913.53;;;18.63;100.00
61678;BME280;47575;52.054;4.334;2022-07-21T09:57:26;101923.50;;;18.58;100.00
61678;BME280;47575;52.054;4.334;2022-07-21T09:59:54;101924.34;;;18.58;100.00
61678;BME280;47575;52.054;4.334;2022-07-21T10:02:23;101914.44;;;18.62;100.00
61678;BME280;47575;52.054;4.334;2022-07-21T10:04:56;101925.00;;;18.63;100.00
61678;BME280;47575;52.054;4.334;2022-07-21T10:07:26;101933.88;;;18.81;100.00
61678;BME280;47575;52.054;4.334;2022-07-21T10:09:56;101932.81;;;19.02;100.00
61678;BME280;47575;52.054;4.334;2022-07-21T10:12:25;101940.59;;;19.05;100.00
61678;BME280;47575;52.054;4.334;2022-07-21T10:14:53;101940.63;;;19.23;100.00
61678;BME280;47575;52.054;4.334;2022-07-21T10:17:22;101942.09;;;19.28;100.00
61678;BME280;47575;52.054;4.334;2022-07-21T10:20:02;101943.84;;;19.29;100.00
61678;BME280;47575;52.054;4.334;2022-07-21T10:22:44;101947.09;;;19.17;100.00
61678;BME280;47575;52.054;4.334;2022-07-21T10:25:16;101945.06;;;19.05;100.00
61678;BME280;47575;52.054;4.334;2022-07-21T10:28:14;101944.19;;;19.04;100.00
61678;BME280;47575;52.054;4.334;2022-07-21T10:30:44;101940.94;;;19.17;100.00
61678;BME280;47575;52.054;4.334;2022-07-21T10:33:13;101947.88;;;19.19;100.00
61678;BME280;47575;52.054;4.334;2022-07-21T10:35:42;101951.56;;;19.17;100.00
61678;BME280;47575;52.054;4.334;2022-07-21T10:38:26;101950.06;;;19.11;100.00
61678;BME280;47575;52.054;4.334;2022-07-21T10:40:54;101954.03;;;19.02;100.00
61678;BME280;47575;52.054;4.334;2022-07-21T10:43:39;101951.19;;;18.88;100.00
61678;BME280;47575;52.054;4.334;2022-07-21T10:46:34;101953.63;;;18.93;100.00
61678;BME280;47575;52.054;4.334;2022-07-21T10:49:07;101949.56;;;18.86;100.00
61678;BME280;47575;52.054;4.334;2022-07-21T10:51:37;101950.47;;;18.85;100.00
61678;BME280;47575;52.054;4.334;2022-07-21T10:54:25;101962.34;;;18.77;100.00
61678;BME280;47575;52.054;4.334;2022-07-21T10:57:24;101967.94;;;18.71;100.00
61678;BME280;47575;52.054;4.334;2022-07-21T11:00:22;101967.16;;;18.69;100.00
61678;BME280;47575;52.054;4.334;2022-07-21T11:02:51;101974.81;;;18.75;100.00
61678;BME280;47575;52.054;4.334;2022-07-21T11:05:20;101976.75;;;18.72;100.00
61678;BME280;47575;52.054;4.334;2022-07-21T11:08:10;101979.97;;;18.60;100.00
61678;BME280;47575;52.054;4.334;2022-07-21T11:10:41;101989.72;;;18.59;100.00
61678;BME280;47575;52.054;4.334;2022-07-21T11:13:10;101985.13;;;18.63;100.00
61678;BME280;47575;52.054;4.334;2022-07-21T11:15:46;101990.31;;;18.66;100.00
61678;BME280;47575;52.054;4.334;2022-07-21T11:18:16;101998.31;;;18.64;100.00
61678;BME280;47575;52.054;4.334;2022-07-21T11:21:08;101988.84;;;18.59;100.00
61678;BME280;47575;52.054;4.334;2022-07-21T11:23:41;101996.03;;;18.57;100.00
61678;BME280;47575;52.054;4.334;2022-07-21T11:26:11;102007.13;;;18.65;100.00
61678;BME280;47575;52.054;4.334;2022-07-21T11:28:39;102002.69;;;18.46;100.00
61678;BME280;47575;52.054;4.334;2022-07-21T11:31:08;102006.19;;;18.47;100.00
61678;BME280;47575;52.054;4.334;2022-07-21T11:33:37;102007.06;;;18.47;100.00
61678;BME280;47575;52.054;4.334;2022-07-21T11:36:05;102009.84;;;18.44;100.00
61678;BME280;47575;52.054;4.334;2022-07-21T11:38:33;102001.13;;;18.42;100.00
61678;BME280;47575;52.054;4.334;2022-07-21T11:41:18;102013.94;;;18.51;100.00
61678;BME280;47575;52.054;4.334;2022-07-21T11:43:46;102009.84;;;18.44;100.00
61678;BME280;47575;52.054;4.334;2022-07-21T11:46:14;102014.06;;;18.30;100.00
61678;BME280;47575;52.054;4.334;2022-07-21T11:48:41;102017.44;;;18.33;100.00
61678;BME280;47575;52.054;4.334;2022-07-21T11:51:09;102017.81;;;18.25;100.00
61678;BME280;47575;52.054;4.334;2022-07-21T11:53:43;102022.56;;;18.17;100.00
61678;BME280;47575;52.054;4.334;2022-07-21T11:56:14;102025.88;;;18.22;100.00
61678;BME280;47575;52.054;4.334;2022-07-21T11:58:43;102028.34;;;18.27;100.00
61678;BME280;47575;52.054;4.334;2022-07-21T12:01:12;102028.97;;;18.32;100.00
61678;BME280;47575;52.054;4.334;2022-07-21T12:06:39;102033.38;;;18.33;100.00
61678;BME280;47575;52.054;4.334;2022-07-21T12:09:07;102030.72;;;18.33;100.00
61678;BME280;47575;52.054;4.334;2022-07-21T12:11:35;102029.13;;;18.29;100.00
61678;BME280;47575;52.054;4.334;2022-07-21T12:14:04;102022.44;;;18.20;100.00
61678;BME280;47575;52.054;4.334;2022-07-21T12:16:31;102036.63;;;18.38;100.00
61678;BME280;47575;52.054;4.334;2022-07-21T12:19:08;102034.28;;;18.51;100.00
61678;BME280;47575;52.054;4.334;2022-07-21T12:21:47;102043.19;;;18.50;100.00
61678;BME280;47575;52.054;4.334;2022-07-21T12:24:17;102041.22;;;18.53;100.00
61678;BME280;47575;52.054;4.334;2022-07-21T12:26:45;102045.56;;;18.56;100.00
61678;BME280;47575;52.054;4.334;2022-07-21T12:29:26;102046.13;;;18.44;100.00
61678;BME280;47575;52.054;4.334;2022-07-21T12:31:53;102041.88;;;18.40;100.00
61678;BME280;47575;52.054;4.334;2022-07-21T12:34:22;102047.13;;;18.41;100.00
61678;BME280;47575;52.054;4.334;2022-07-21T12:36:50;102052.28;;;18.44;100.00
61678;BME280;47575;52.054;4.334;2022-07-21T12:39:19;102044.19;;;18.47;100.00
61678;BME280;47575;52.054;4.334;2022-07-21T12:42:04;102056.88;;;18.41;100.00
61678;BME280;47575;52.054;4.334;2022-07-21T12:44:34;102057.00;;;18.38;100.00
61678;BME280;47575;52.054;4.334;2022-07-21T12:47:15;102058.72;;;18.39;100.00
61678;BME280;47575;52.054;4.334;2022-07-21T12:49:56;102061.34;;;18.39;100.00
61678;BME280;47575;52.054;4.334;2022-07-21T12:52:24;102069.19;;;18.42;100.00
61678;BME280;47575;52.054;4.334;2022-07-21T12:54:52;102065.44;;;18.46;100.00